Time;durP1;ratioP1;P1;durP2;ratioP2;P2;SDS_P1;SDS_P2;PMS_P1;PMS_P2;Temp;Humidity;BMP_temperature;BMP_pressure;BME280_temperature;BME280_humidity;BME280_pressure;Samples;Min_cycle;Max_cycle;Signal;HPM_P1;HPM_P2
2021/05/23 00:00:56;;;;;;;8.20;4.27;;;9.40;99.90;;;;;;4735229;30;20196;-84
2021/05/23 00:03:21;;;;;;;7.97;4.17;;;9.40;99.90;;;;;;4735331;30;20241;-83
2021/05/23 00:05:48;;;;;;;7.73;4.40;;;;;;;;;;4719497;30;20646;-83
2021/05/23 00:08:18;;;;;;;8.20;4.97;;;9.40;99.90;;;;;;4719513;30;20282;-84
2021/05/23 00:10:59;;;;;;;7.30;5.00;;;9.40;99.90;;;;;;4704905;30;20649;-84
2021/05/23 00:13:32;;;;;;;9.83;5.50;;;9.50;99.90;;;;;;4720098;30;20446;-83
2021/05/23 00:16:08;;;;;;;13.27;6.27;;;9.50;99.90;;;;;;4719530;30;20337;-83
2021/05/23 00:18:38;;;;;;;11.33;5.50;;;9.50;99.90;;;;;;4735050;30;20191;-84
2021/05/23 00:21:04;;;;;;;7.13;5.67;;;9.50;99.90;;;;;;4735052;30;20261;-83
2021/05/23 00:23:30;;;;;;;9.20;6.50;;;9.60;99.90;;;;;;4719609;30;20253;-83
2021/05/23 00:25:56;;;;;;;11.73;6.50;;;9.60;99.90;;;;;;4719495;30;20203;-84
2021/05/23 00:28:23;;;;;;;8.67;6.33;;;9.60;99.90;;;;;;4735265;30;20215;-83
2021/05/23 00:30:48;;;;;;;11.60;6.87;;;9.70;99.90;;;;;;4718969;30;20278;-83
2021/05/23 00:33:15;;;;;;;8.00;6.03;;;9.70;99.90;;;;;;4737375;30;20214;-83
2021/05/23 00:35:40;;;;;;;9.67;6.50;;;9.70;99.90;;;;;;4745244;30;20214;-88
2021/05/23 00:38:07;;;;;;;9.93;6.23;;;9.70;99.90;;;;;;4748845;30;20191;-83
2021/05/23 00:40:34;;;;;;;9.60;6.47;;;9.60;99.90;;;;;;4734912;30;20245;-83
2021/05/23 00:43:03;;;;;;;8.13;5.83;;;9.60;99.90;;;;;;4734794;30;20191;-83
2021/05/23 00:45:30;;;;;;;8.40;6.70;;;9.60;99.90;;;;;;4734890;30;20187;-83
2021/05/23 00:47:55;;;;;;;14.67;6.93;;;9.60;99.90;;;;;;4734811;30;20230;-83
2021/05/23 00:50:24;;;;;;;11.77;6.10;;;9.60;99.90;;;;;;4734660;30;20188;-83
2021/05/23 00:52:51;;;;;;;8.03;6.17;;;9.50;99.90;;;;;;4734274;30;20226;-83
2021/05/23 00:55:19;;;;;;;9.03;6.43;;;9.50;99.90;;;;;;4734791;30;20191;-83
2021/05/23 00:57:45;;;;;;;11.50;6.30;;;9.50;99.90;;;;;;4718907;30;20200;-84
2021/05/23 01:00:11;;;;;;;9.33;6.20;;;9.50;99.90;;;;;;4734638;30;20198;-83
2021/05/23 01:02:48;;;;;;;13.73;5.93;;;9.50;99.90;;;;;;4734908;30;20209;-83
2021/05/23 01:05:20;;;;;;;7.63;5.90;;;9.50;99.90;;;;;;4718834;30;20298;-83
2021/05/23 01:07:47;;;;;;;9.47;5.23;;;9.50;99.90;;;;;;4737164;30;20219;-83
2021/05/23 01:10:18;;;;;;;9.23;5.87;;;9.40;99.90;;;;;;4707968;30;20191;-83
2021/05/23 01:12:52;;;;;;;8.70;5.43;;;9.40;99.90;;;;;;4738089;30;20191;-88
2021/05/23 01:15:35;;;;;;;6.83;5.17;;;9.30;99.90;;;;;;4722456;30;20716;-83
2021/05/23 01:18:04;;;;;;;11.20;5.27;;;9.30;99.90;;;;;;4737784;30;20195;-83
2021/05/23 01:20:44;;;;;;;10.23;4.93;;;9.20;99.90;;;;;;4737687;30;20239;-83
2021/05/23 01:23:19;;;;;;;6.70;4.77;;;9.20;99.90;;;;;;4738257;30;20341;-83
2021/05/23 01:25:47;;;;;;;10.23;5.03;;;9.20;99.90;;;;;;4737969;30;20193;-86
2021/05/23 01:28:17;;;;;;;8.40;5.67;;;9.20;99.90;;;;;;4721928;30;20270;-83
2021/05/23 01:30:46;;;;;;;8.40;4.80;;;9.10;99.90;;;;;;4737991;30;20191;-83
2021/05/23 01:33:15;;;;;;;9.60;5.37;;;9.10;99.90;;;;;;4738011;30;20187;-83
2021/05/23 01:35:45;;;;;;;8.63;5.03;;;9.10;99.90;;;;;;4738076;30;20267;-83
2021/05/23 01:38:13;;;;;;;8.87;5.20;;;9.10;99.90;;;;;;4737702;30;20195;-83
2021/05/23 01:40:39;;;;;;;6.73;4.50;;;9.10;99.90;;;;;;4722227;30;20199;-82
2021/05/23 01:43:06;;;;;;;6.53;4.13;;;9.00;99.90;;;;;;4741943;30;20306;-83
2021/05/23 01:45:33;;;;;;;6.87;4.63;;;9.00;99.90;;;;;;4740303;30;20206;-83
2021/05/23 01:47:59;;;;;;;7.70;4.83;;;9.00;99.90;;;;;;4737506;30;20223;-83
2021/05/23 01:50:27;;;;;;;9.80;4.17;;;9.00;99.90;;;;;;4737926;30;20187;-83
2021/05/23 01:52:58;;;;;;;7.30;4.80;;;9.00;99.90;;;;;;4707094;30;20195;-83
2021/05/23 01:55:24;;;;;;;6.13;3.90;;;9.00;99.90;;;;;;4707403;30;20222;-82
2021/05/23 01:57:50;;;;;;;7.97;5.23;;;8.80;99.90;;;;;;4737008;30;20278;-86
2021/05/23 02:00:26;;;;;;;11.17;4.67;;;8.90;99.90;;;;;;4737298;30;20270;-83
2021/05/23 02:02:52;;;;;;;10.07;4.07;;;8.90;99.90;;;;;;4737104;30;20207;-84
2021/05/23 02:05:18;;;;;;;7.30;5.03;;;8.90;99.90;;;;;;4737682;30;20587;-83
2021/05/23 02:07:44;;;;;;;8.63;4.93;;;8.80;99.90;;;;;;4706955;30;20231;-83
2021/05/23 02:10:15;;;;;;;9.17;4.60;;;8.80;99.90;;;;;;4721537;30;20670;-82
2021/05/23 02:12:42;;;;;;;14.37;9.13;;;8.80;99.90;;;;;;4737109;30;20191;-83
2021/05/23 02:15:09;;;;;;;11.03;5.77;;;8.70;99.90;;;;;;4737101;30;20194;-83
2021/05/23 02:17:36;;;;;;;11.17;6.73;;;8.70;99.90;;;;;;4721171;30;20191;-83
2021/05/23 02:20:07;;;;;;;13.93;9.97;;;8.70;99.90;;;;;;4721178;30;20210;-83
2021/05/23 02:22:40;;;;;;;8.17;6.70;;;8.70;99.90;;;;;;4736999;30;20191;-82
2021/05/23 02:25:07;;;;;;;5.90;3.93;;;8.70;99.90;;;;;;4720954;30;20245;-83
2021/05/23 02:27:44;;;;;;;7.67;4.70;;;8.70;99.90;;;;;;4721374;30;20223;-82
2021/05/23 02:30:33;;;;;;;9.57;4.03;;;8.70;99.90;;;;;;4736359;30;20668;-83
2021/05/23 02:32:59;;;;;;;4.60;3.30;;;8.70;99.90;;;;;;4737078;30;20278;-83
2021/05/23 02:35:27;;;;;;;5.37;3.63;;;8.70;99.90;;;;;;4721407;30;20736;-83
2021/05/23 02:37:54;;;;;;;7.30;3.47;;;8.80;99.90;;;;;;4721239;30;20195;-82
2021/05/23 02:40:23;;;;;;;5.90;3.73;;;8.80;99.90;;;;;;4736590;30;20222;-82
2021/05/23 02:42:49;;;;;;;7.60;3.80;;;8.80;99.90;;;;;;4736611;30;20552;-83
2021/05/23 02:45:17;;;;;;;6.80;4.70;;;8.80;99.90;;;;;;4736416;30;20195;-83
2021/05/23 02:47:45;;;;;;;5.37;3.70;;;8.90;99.90;;;;;;4736491;30;20215;-83
2021/05/23 02:50:14;;;;;;;6.03;4.10;;;8.90;99.90;;;;;;4736299;30;20198;-83
2021/05/23 02:52:40;;;;;;;5.90;4.17;;;8.90;99.90;;;;;;4736861;30;20282;-83
2021/05/23 02:55:07;;;;;;;6.57;4.27;;;8.90;99.90;;;;;;4720818;30;20195;-83
2021/05/23 02:57:38;;;;;;;6.10;3.80;;;9.00;99.90;;;;;;4720855;30;20219;-83
2021/05/23 03:00:08;;;;;;;6.83;4.17;;;9.00;99.90;;;;;;4736031;30;20176;-82
2021/05/23 03:02:35;;;;;;;8.17;3.67;;;9.10;99.90;;;;;;4736433;30;20187;-81
2021/05/23 03:05:01;;;;;;;7.00;3.53;;;9.10;99.90;;;;;;4720450;30;21070;-82
2021/05/23 03:07:27;;;;;;;5.80;3.60;;;9.10;99.90;;;;;;4720661;30;20207;-82
2021/05/23 03:09:53;;;;;;;4.80;3.30;;;9.10;99.90;;;;;;4720447;30;20196;-83
2021/05/23 03:12:18;;;;;;;5.93;3.47;;;9.00;99.90;;;;;;4706029;30;21170;-84
2021/05/23 03:14:44;;;;;;;6.30;3.37;;;9.20;99.90;;;;;;4720701;30;20203;-83
2021/05/23 03:17:11;;;;;;;5.73;3.40;;;9.20;99.90;;;;;;4720157;30;20226;-84
2021/05/23 03:19:37;;;;;;;6.63;3.53;;;9.20;99.90;;;;;;4736553;30;20191;-83
2021/05/23 03:22:06;;;;;;;6.27;3.87;;;9.30;99.90;;;;;;4736502;30;20642;-82
2021/05/23 03:24:33;;;;;;;4.87;2.90;;;9.20;99.90;;;;;;4735869;30;20191;-83
2021/05/23 03:26:59;;;;;;;7.00;3.20;;;;;;;;;;4736091;30;20183;-82
2021/05/23 03:29:24;;;;;;;5.17;3.30;;;9.20;99.90;;;;;;4735207;30;20227;-82
2021/05/23 03:31:50;;;;;;;5.40;2.70;;;9.20;99.90;;;;;;4735779;30;20249;-82
2021/05/23 03:34:16;;;;;;;7.20;3.87;;;;;;;;;;4719960;30;20196;-83
2021/05/23 03:36:42;;;;;;;6.97;3.43;;;9.30;99.90;;;;;;4720459;30;20202;-83
2021/05/23 03:39:08;;;;;;;5.30;3.33;;;9.30;99.90;;;;;;4719674;30;20661;-83
2021/05/23 03:41:33;;;;;;;7.60;3.50;;;9.30;99.90;;;;;;4735778;30;20673;-83
2021/05/23 03:43:59;;;;;;;6.27;3.23;;;9.30;99.90;;;;;;4735461;30;20245;-84
2021/05/23 03:46:25;;;;;;;5.10;3.13;;;9.30;99.90;;;;;;4735230;30;20195;-83
2021/05/23 03:48:50;;;;;;;6.70;3.03;;;9.10;99.90;;;;;;4735454;30;20234;-83
2021/05/23 03:51:16;;;;;;;4.90;3.27;;;9.40;99.90;;;;;;4705147;30;20294;-83
2021/05/23 03:53:42;;;;;;;5.67;3.10;;;9.40;99.90;;;;;;4719932;30;20237;-83
2021/05/23 03:56:08;;;;;;;5.73;3.10;;;9.30;99.90;;;;;;4719317;30;20201;-83
2021/05/23 03:58:33;;;;;;;6.70;2.80;;;9.50;99.90;;;;;;4735240;30;20549;-83
2021/05/23 04:00:59;;;;;;;7.60;3.03;;;9.50;99.90;;;;;;4719773;30;20203;-84
2021/05/23 04:03:27;;;;;;;7.83;2.97;;;9.60;99.90;;;;;;4735219;30;20681;-83
2021/05/23 04:05:53;;;;;;;3.67;2.10;;;9.70;99.90;;;;;;4720045;30;20626;-83
2021/05/23 04:08:19;;;;;;;7.23;2.90;;;9.80;99.90;;;;;;4735094;30;20243;-84
2021/05/23 04:10:55;;;;;;;6.77;2.60;;;9.90;99.90;;;;;;4719813;30;20191;-84
2021/05/23 04:13:23;;;;;;;3.97;2.57;;;10.00;99.90;;;;;;4735223;30;20191;-83
2021/05/23 04:15:48;;;;;;;5.73;2.60;;;10.10;99.90;;;;;;4705371;30;20202;-84
2021/05/23 04:18:14;;;;;;;7.60;2.33;;;10.20;99.90;;;;;;4705289;30;20195;-84
2021/05/23 04:20:40;;;;;;;3.27;2.53;;;10.20;99.90;;;;;;4719721;30;20749;-84
2021/05/23 04:23:05;;;;;;;3.33;2.43;;;10.30;99.90;;;;;;4735405;30;20274;-84
2021/05/23 04:25:31;;;;;;;4.93;2.37;;;10.30;99.90;;;;;;4734545;30;20198;-84
2021/05/23 04:27:58;;;;;;;7.97;2.17;;;10.40;99.90;;;;;;4705038;30;20266;-84
2021/05/23 04:30:25;;;;;;;4.30;2.20;;;10.40;99.90;;;;;;4704515;30;20622;-84
2021/05/23 04:32:51;;;;;;;6.97;2.40;;;10.50;99.90;;;;;;4719741;30;20191;-84
2021/05/23 04:35:17;;;;;;;6.63;2.70;;;10.50;99.90;;;;;;4718957;30;20202;-84
2021/05/23 04:37:44;;;;;;;3.10;2.10;;;10.60;99.90;;;;;;4719316;30;20195;-84
2021/05/23 04:40:12;;;;;;;3.33;2.10;;;10.70;99.90;;;;;;4719091;30;20227;-84
2021/05/23 04:42:38;;;;;;;2.57;2.00;;;10.80;99.90;;;;;;4718692;30;20187;-84
2021/05/23 04:45:05;;;;;;;2.60;1.60;;;10.90;99.90;;;;;;4719106;30;20195;-84
2021/05/23 04:47:32;;;;;;;5.47;2.00;;;11.00;99.90;;;;;;4734655;30;20184;-84
2021/05/23 04:49:58;;;;;;;2.63;1.60;;;11.10;99.90;;;;;;4704827;30;20266;-84
2021/05/23 04:52:23;;;;;;;2.93;1.97;;;11.40;99.90;;;;;;4718662;30;20644;-84
2021/05/23 04:54:49;;;;;;;2.93;1.63;;;11.50;99.90;;;;;;4718971;30;20187;-84
2021/05/23 04:57:15;;;;;;;8.70;2.53;;;11.50;99.90;;;;;;4718828;30;20657;-85
2021/05/23 04:59:40;;;;;;;4.40;2.33;;;11.50;99.90;;;;;;4704267;30;20560;-84
2021/05/23 05:02:06;;;;;;;3.88;1.92;;;11.50;99.90;;;;;;4690325;30;20292;-83
2021/05/23 05:04:32;;;;;;;3.60;2.30;;;11.50;99.90;;;;;;4733450;30;20261;-84
2021/05/23 05:06:58;;;;;;;4.82;1.88;;;11.40;99.90;;;;;;4734727;30;20661;-84
2021/05/23 05:09:24;;;;;;;3.53;1.80;;;11.40;99.90;;;;;;4718171;30;20246;-84
2021/05/23 05:11:50;;;;;;;2.92;1.80;;;11.30;99.90;;;;;;4718135;30;20184;-84
2021/05/23 05:14:16;;;;;;;3.17;1.77;;;11.30;99.90;;;;;;4718110;30;20366;-86
2021/05/23 05:16:42;;;;;;;4.93;1.67;;;11.30;99.90;;;;;;4733433;30;20187;-85
2021/05/23 05:19:08;;;;;;;3.53;1.90;;;11.20;99.90;;;;;;4703205;30;20721;-84
2021/05/23 05:21:34;;;;;;;3.97;1.90;;;11.20;99.90;;;;;;4688822;30;20241;-84
2021/05/23 05:23:59;;;;;;;5.40;1.70;;;11.30;99.90;;;;;;4718528;30;20191;-84
2021/05/23 05:26:25;;;;;;;6.57;2.43;;;11.30;99.90;;;;;;4717667;30;20217;-85
2021/05/23 05:28:51;;;;;;;2.33;1.60;;;11.30;99.90;;;;;;4733912;30;20223;-86
2021/05/23 05:31:17;;;;;;;4.17;1.73;;;;;;;;;;4717596;30;20188;-83
2021/05/23 05:33:43;;;;;;;2.87;1.97;;;11.30;99.90;;;;;;4718338;30;20194;-84
2021/05/23 05:36:08;;;;;;;3.70;1.93;;;11.30;99.90;;;;;;4718533;30;20191;-84
2021/05/23 05:38:35;;;;;;;3.20;1.95;;;11.30;99.90;;;;;;4733948;30;20673;-85
2021/05/23 05:41:01;;;;;;;2.47;1.65;;;11.60;99.90;;;;;;4733771;30;20242;-84
2021/05/23 05:43:26;;;;;;;3.22;1.70;;;11.70;99.90;;;;;;4740172;30;20196;-83
2021/05/23 05:45:52;;;;;;;2.50;1.70;;;12.40;99.90;;;;;;4741901;30;20258;-85
2021/05/23 05:48:18;;;;;;;2.72;1.70;;;12.10;99.90;;;;;;4714938;30;20548;-85
2021/05/23 05:50:44;;;;;;;4.03;1.85;;;12.40;99.90;;;;;;4705467;30;20694;-85
2021/05/23 05:53:10;;;;;;;4.90;2.00;;;12.50;99.90;;;;;;4720259;30;20209;-85
2021/05/23 05:55:36;;;;;;;2.83;1.80;;;12.80;99.90;;;;;;4721944;30;20858;-84
2021/05/23 05:58:02;;;;;;;3.15;1.83;;;13.00;99.90;;;;;;4720789;30;20198;-85
2021/05/23 06:00:27;;;;;;;3.28;1.90;;;13.10;99.90;;;;;;4721600;30;20261;-86
2021/05/23 06:02:53;;;;;;;6.30;1.98;;;13.30;99.90;;;;;;4721337;30;20694;-85
2021/05/23 06:05:19;;;;;;;2.10;1.90;;;13.30;99.90;;;;;;4736012;30;20191;-84
2021/05/23 06:07:45;;;;;;;3.17;2.00;;;12.40;99.90;;;;;;4705474;30;20223;-85
2021/05/23 06:10:13;;;;;;;3.97;2.03;;;13.30;99.90;;;;;;4721052;30;20227;-86
2021/05/23 06:12:39;;;;;;;6.13;1.83;;;13.40;99.90;;;;;;4720262;30;20184;-85
2021/05/23 06:15:07;;;;;;;3.00;1.70;;;13.40;99.90;;;;;;4720638;30;20198;-87
2021/05/23 06:17:33;;;;;;;2.58;1.63;;;13.60;99.90;;;;;;4735581;30;20658;-85
2021/05/23 06:19:59;;;;;;;3.15;2.00;;;13.70;99.90;;;;;;4720609;30;20195;-83
2021/05/23 06:22:25;;;;;;;4.88;2.13;;;13.90;99.90;;;;;;4741355;30;20270;-84
2021/05/23 06:24:50;;;;;;;6.03;1.75;;;13.90;99.90;;;;;;4736418;30;20210;-84
2021/05/23 06:27:16;;;;;;;4.60;1.65;;;13.90;99.90;;;;;;4720671;30;20206;-83
2021/05/23 06:29:43;;;;;;;2.67;1.48;;;14.00;99.90;;;;;;4720939;30;20191;-85
2021/05/23 06:32:09;;;;;;;3.20;1.73;;;14.10;99.90;;;;;;4735234;30;20241;-84
2021/05/23 06:34:34;;;;;;;5.45;1.75;;;14.10;99.90;;;;;;4720789;30;20191;-84
2021/05/23 06:37:00;;;;;;;3.10;1.83;;;14.00;99.90;;;;;;4720800;30;20186;-84
2021/05/23 06:39:26;;;;;;;2.92;1.65;;;14.10;99.90;;;;;;4736493;30;20211;-83
2021/05/23 06:41:52;;;;;;;4.30;1.48;;;14.30;99.90;;;;;;4720549;30;20195;-83
2021/05/23 06:44:18;;;;;;;3.28;1.63;;;14.40;99.90;;;;;;4733131;30;20646;-83
2021/05/23 06:46:44;;;;;;;4.90;1.77;;;14.60;99.90;;;;;;4720464;30;20180;-85
2021/05/23 06:49:10;;;;;;;5.20;1.60;;;14.60;99.90;;;;;;4705651;30;20223;-83
2021/05/23 06:51:36;;;;;;;4.93;1.95;;;14.70;99.90;;;;;;4736033;30;20539;-84
2021/05/23 06:54:02;;;;;;;7.72;2.03;;;14.40;99.90;;;;;;4722575;30;20282;-84
2021/05/23 06:56:28;;;;;;;4.38;2.00;;;14.70;99.90;;;;;;4721272;30;20188;-83
2021/05/23 06:58:53;;;;;;;7.47;1.83;;;14.80;99.90;;;;;;4736394;30;20199;-84
2021/05/23 07:01:19;;;;;;;2.80;1.73;;;14.90;99.90;;;;;;4721211;30;20564;-84
2021/05/23 07:03:45;;;;;;;5.70;1.92;;;15.10;99.90;;;;;;4720048;30;20191;-85
2021/05/23 07:06:11;;;;;;;4.47;1.75;;;15.10;99.90;;;;;;4735948;30;20599;-84
2021/05/23 07:08:37;;;;;;;5.05;1.77;;;;;;;;;;4736321;30;20215;-84
2021/05/23 07:11:03;;;;;;;4.97;1.98;;;14.90;99.90;;;;;;4729612;30;20213;-84
2021/05/23 07:13:29;;;;;;;2.42;1.40;;;14.80;99.90;;;;;;4717907;30;20659;-84
2021/05/23 07:15:55;;;;;;;2.85;1.88;;;15.00;99.90;;;;;;4683824;30;20220;-84
2021/05/23 07:18:21;;;;;;;4.03;2.00;;;14.90;99.90;;;;;;4734206;30;20203;-85
2021/05/23 07:20:47;;;;;;;3.35;1.77;;;15.00;99.90;;;;;;4701710;30;20249;-85
2021/05/23 07:23:13;;;;;;;3.50;1.70;;;15.10;99.90;;;;;;4717016;30;20191;-85
2021/05/23 07:25:39;;;;;;;6.30;1.88;;;15.30;99.90;;;;;;4733915;30;20195;-86
2021/05/23 07:28:05;;;;;;;3.63;1.50;;;15.40;99.90;;;;;;4716333;30;20245;-86
2021/05/23 07:30:32;;;;;;;7.30;1.90;;;15.60;99.90;;;;;;4733887;30;20223;-86
2021/05/23 07:33:04;;;;;;;3.92;2.10;;;15.60;99.90;;;;;;4733718;30;20203;-85
2021/05/23 07:35:29;;;;;;;5.10;1.65;;;15.70;99.90;;;;;;4715569;30;20200;-87
2021/05/23 07:37:55;;;;;;;5.80;1.70;;;15.90;99.90;;;;;;4703880;30;20245;-85
2021/05/23 07:40:21;;;;;;;4.20;1.83;;;16.10;99.90;;;;;;4702790;30;20207;-84
2021/05/23 07:42:47;;;;;;;3.22;1.63;;;16.00;99.90;;;;;;4703443;30;20257;-86
2021/05/23 07:45:13;;;;;;;5.15;1.67;;;15.90;99.90;;;;;;4719662;30;20203;-85
2021/05/23 07:47:39;;;;;;;2.22;1.58;;;15.90;99.90;;;;;;4725969;30;20262;-85
2021/05/23 07:50:08;;;;;;;2.78;1.52;;;16.00;99.90;;;;;;4721402;30;20283;-85
2021/05/23 07:52:34;;;;;;;6.55;1.65;;;15.50;99.90;;;;;;4751100;30;20175;-85
2021/05/23 07:55:00;;;;;;;2.60;1.27;;;16.00;99.90;;;;;;4752692;30;20196;-86
2021/05/23 07:57:25;;;;;;;3.08;2.17;;;16.30;99.90;;;;;;4720620;30;20234;-86
2021/05/23 07:59:52;;;;;;;2.80;1.50;;;;;;;;;;4718374;30;20222;-85
2021/05/23 08:02:18;;;;;;;2.63;1.40;;;16.50;99.90;;;;;;4731012;30;20191;-86
2021/05/23 08:04:44;;;;;;;2.78;1.55;;;;;;;;;;4731016;30;20295;-83
2021/05/23 08:07:09;;;;;;;4.50;1.50;;;16.70;99.90;;;;;;4729123;30;20739;-85
2021/05/23 08:09:36;;;;;;;2.53;1.60;;;;;;;;;;4718980;30;20305;-84
2021/05/23 08:12:02;;;;;;;2.92;1.67;;;16.70;99.90;;;;;;4735739;30;20254;-88
2021/05/23 08:14:28;;;;;;;10.90;1.83;;;16.70;99.90;;;;;;4720363;30;20719;-87
2021/05/23 08:16:54;;;;;;;3.70;1.33;;;17.00;99.90;;;;;;4718313;30;20191;-86
2021/05/23 08:19:20;;;;;;;5.28;1.90;;;16.60;99.90;;;;;;4702230;30;20199;-86
2021/05/23 08:21:47;;;;;;;2.47;1.08;;;17.10;99.90;;;;;;4716752;30;20384;-87
2021/05/23 08:24:13;;;;;;;3.35;1.30;;;17.00;99.90;;;;;;4717677;30;20682;-87
2021/05/23 08:26:39;;;;;;;2.17;1.60;;;17.20;99.90;;;;;;4733712;30;20199;-86
2021/05/23 08:29:05;;;;;;;4.95;1.60;;;17.20;99.90;;;;;;4733327;30;20231;-86
2021/05/23 08:31:31;;;;;;;4.07;1.50;;;17.30;99.90;;;;;;4732862;30;20199;-86
2021/05/23 08:33:57;;;;;;;2.95;1.38;;;17.90;99.90;;;;;;4716842;30;20314;-85
2021/05/23 08:36:23;;;;;;;2.97;1.30;;;17.60;99.90;;;;;;4717413;30;20614;-88
2021/05/23 08:38:49;;;;;;;2.78;1.33;;;17.60;99.90;;;;;;4732430;30;20199;-85
2021/05/23 08:41:16;;;;;;;2.10;1.23;;;17.70;99.90;;;;;;4729551;30;20195;-85
2021/05/23 08:43:43;;;;;;;2.95;1.35;;;17.70;99.90;;;;;;4716059;30;20191;-87
2021/05/23 08:46:08;;;;;;;1.83;1.20;;;18.20;99.90;;;;;;4730826;30;20187;-88
2021/05/23 08:48:35;;;;;;;2.88;0.85;;;17.90;99.90;;;;;;4701149;30;20593;-87
2021/05/23 08:51:01;;;;;;;3.45;1.17;;;18.00;99.90;;;;;;4715574;30;20210;-87
2021/05/23 08:53:27;;;;;;;2.72;1.27;;;;;;;;;;4716025;30;20191;-86
2021/05/23 08:55:53;;;;;;;4.18;1.83;;;18.30;99.90;;;;;;4731778;30;20187;-86
2021/05/23 08:58:18;;;;;;;3.30;1.40;;;18.20;99.90;;;;;;4713610;30;20261;-86
2021/05/23 09:00:45;;;;;;;4.18;1.20;;;;;;;;;;4717274;30;20192;-85
2021/05/23 09:03:13;;;;;;;3.80;1.20;;;18.30;96.90;;;;;;4716949;30;20203;-87
2021/05/23 09:05:45;;;;;;;3.50;0.90;;;18.40;97.30;;;;;;4732657;30;20200;-86
2021/05/23 09:08:17;;;;;;;0.90;0.70;;;18.40;98.40;;;;;;4718182;30;20234;-86
2021/05/23 09:10:46;;;;;;;5.97;1.20;;;18.30;95.20;;;;;;4716780;30;20254;-85
2021/05/23 09:13:14;;;;;;;6.53;1.02;;;18.20;94.20;;;;;;4732515;30;20199;-86
2021/05/23 09:15:40;;;;;;;3.88;0.90;;;18.20;94.90;;;;;;4716696;30;20187;-86
2021/05/23 09:18:11;;;;;;;2.40;0.95;;;18.40;91.60;;;;;;4731179;30;20571;-88
2021/05/23 09:20:43;;;;;;;3.35;1.20;;;18.50;85.00;;;;;;4733586;30;20704;-89
2021/05/23 09:23:19;;;;;;;1.33;0.70;;;18.50;88.10;;;;;;4732553;30;20203;-86
2021/05/23 09:25:45;;;;;;;2.92;0.93;;;18.70;83.10;;;;;;4730951;30;20222;-84
2021/05/23 09:28:11;;;;;;;4.18;1.50;;;18.80;81.60;;;;;;4718021;30;20334;-86
2021/05/23 09:30:39;;;;;;;1.63;0.90;;;;;;;;;;4734824;30;20287;-86
2021/05/23 09:33:06;;;;;;;3.42;1.20;;;19.10;79.00;;;;;;4720659;30;20616;-86
2021/05/23 09:35:41;;;;;;;2.80;1.30;;;19.10;81.60;;;;;;4736827;30;20184;-87
2021/05/23 09:38:07;;;;;;;2.15;1.02;;;19.20;74.90;;;;;;4721470;30;20194;-85
2021/05/23 09:40:36;;;;;;;3.08;1.10;;;19.00;74.90;;;;;;4738604;30;20213;-86
2021/05/23 09:43:03;;;;;;;3.60;0.98;;;19.40;78.70;;;;;;4721887;30;20561;-87
2021/05/23 09:45:44;;;;;;;3.22;0.93;;;19.20;77.70;;;;;;4737868;30;20701;-87
2021/05/23 09:48:47;;;;;;;1.00;0.55;;;19.50;71.30;;;;;;4737818;30;20194;-86
2021/05/23 09:51:17;;;;;;;3.45;1.08;;;19.20;69.30;;;;;;4727010;30;20231;-85
2021/05/23 09:53:44;;;;;;;1.48;0.70;;;19.20;68.60;;;;;;4722128;30;20187;-85
2021/05/23 09:56:12;;;;;;;1.50;0.95;;;19.30;64.50;;;;;;4721539;30;20659;-84
2021/05/23 09:58:39;;;;;;;8.15;0.90;;;19.10;64.30;;;;;;4738826;30;20191;-85
2021/05/23 10:01:07;;;;;;;4.72;1.13;;;19.30;67.90;;;;;;4738188;30;20251;-89
2021/05/23 10:03:36;;;;;;;1.85;1.00;;;19.50;63.30;;;;;;4722682;30;20199;-90
2021/05/23 10:06:03;;;;;;;3.92;0.70;;;19.50;65.20;;;;;;4737925;30;20709;-87
2021/05/23 10:08:31;;;;;;;2.92;0.90;;;19.70;65.40;;;;;;4722187;30;20581;-87
2021/05/23 10:10:57;;;;;;;2.67;0.60;;;19.50;62.30;;;;;;4737313;30;20256;-86
2021/05/23 10:13:25;;;;;;;3.13;0.90;;;19.20;62.70;;;;;;4707219;30;20195;-86
2021/05/23 10:15:51;;;;;;;3.42;1.20;;;19.00;63.40;;;;;;4737576;30;20183;-86
2021/05/23 10:18:20;;;;;;;5.18;1.10;;;19.10;62.40;;;;;;4707319;30;20199;-86
2021/05/23 10:20:47;;;;;;;4.80;1.00;;;18.30;63.50;;;;;;4734649;30;20241;-86
2021/05/23 10:23:21;;;;;;;2.58;0.90;;;19.10;61.70;;;;;;4721455;30;20187;-87
2021/05/23 10:25:50;;;;;;;1.63;0.68;;;19.70;64.60;;;;;;4717684;30;20278;-86
2021/05/23 10:28:18;;;;;;;3.90;0.70;;;19.40;62.50;;;;;;4737639;30;20242;-85
2021/05/23 10:30:48;;;;;;;4.15;1.15;;;19.40;61.90;;;;;;4736686;30;20275;-86
2021/05/23 10:33:14;;;;;;;1.00;0.73;;;19.30;63.10;;;;;;4720695;30;20187;-85
2021/05/23 10:35:47;;;;;;;2.47;0.98;;;19.10;61.90;;;;;;4737054;30;20198;-86
2021/05/23 10:38:16;;;;;;;1.15;0.80;;;19.20;61.80;;;;;;4736817;30;20196;-87
2021/05/23 10:40:55;;;;;;;3.40;0.80;;;19.30;63.30;;;;;;4736704;30;20221;-86
2021/05/23 10:43:24;;;;;;;0.60;0.60;;;19.40;63.70;;;;;;4721770;30;20186;-85
2021/05/23 10:46:07;;;;;;;1.67;0.70;;;19.50;60.80;;;;;;4721080;30;20678;-85
2021/05/23 10:48:33;;;;;;;1.08;0.60;;;19.40;59.80;;;;;;4720482;30;20262;-85
2021/05/23 10:51:16;;;;;;;2.08;0.88;;;19.40;60.40;;;;;;4722040;30;20195;-86
2021/05/23 10:53:43;;;;;;;2.15;0.63;;;20.10;60.10;;;;;;4739151;30;20225;-84
2021/05/23 10:56:23;;;;;;;3.85;0.80;;;19.90;60.10;;;;;;4723781;30;20183;-86
2021/05/23 10:58:55;;;;;;;5.88;0.80;;;20.10;59.60;;;;;;4745190;30;20585;-86
2021/05/23 11:01:43;;;;;;;1.42;0.77;;;20.10;58.40;;;;;;4743921;30;20183;-86
2021/05/23 11:04:14;;;;;;;0.80;0.60;;;19.90;57.50;;;;;;4743192;30;20187;-86
2021/05/23 11:06:41;;;;;;;3.75;0.82;;;19.70;58.30;;;;;;4740976;30;20188;-86
2021/05/23 11:09:12;;;;;;;1.42;0.73;;;19.80;58.50;;;;;;4746444;30;20217;-86
2021/05/23 11:11:39;;;;;;;2.30;0.80;;;19.70;57.60;;;;;;4746761;30;20297;-85
2021/05/23 11:14:23;;;;;;;3.05;0.65;;;17.40;56.90;;;;;;4747009;30;20641;-85
2021/05/23 11:16:52;;;;;;;3.55;0.90;;;19.80;58.20;;;;;;4719952;30;20194;-85
2021/05/23 11:19:18;;;;;;;5.43;0.95;;;19.70;56.50;;;;;;4761759;30;20691;-85
2021/05/23 11:21:46;;;;;;;1.10;0.80;;;19.50;55.90;;;;;;4724434;30;20661;-85
2021/05/23 11:24:12;;;;;;;2.60;1.02;;;19.50;56.90;;;;;;4745032;30;20180;-85
2021/05/23 11:26:38;;;;;;;3.30;1.33;;;19.50;56.00;;;;;;4744351;30;20249;-87
2021/05/23 11:29:05;;;;;;;1.58;0.60;;;19.30;56.60;;;;;;4722040;30;20641;-86
2021/05/23 11:31:33;;;;;;;7.43;0.90;;;19.20;56.10;;;;;;4736211;30;20195;-85
2021/05/23 11:34:01;;;;;;;1.13;0.60;;;19.50;57.00;;;;;;4736933;30;20183;-87
2021/05/23 11:36:39;;;;;;;1.85;1.00;;;19.50;55.70;;;;;;4736661;30;20195;-87
2021/05/23 11:39:19;;;;;;;4.22;0.80;;;19.50;55.90;;;;;;4721388;30;20198;-87
2021/05/23 11:41:46;;;;;;;2.95;0.75;;;19.70;55.10;;;;;;4721028;30;20196;-85
2021/05/23 11:44:13;;;;;;;1.33;0.65;;;19.50;54.50;;;;;;4719847;30;20188;-84
2021/05/23 11:46:44;;;;;;;2.47;0.77;;;19.40;54.00;;;;;;4735601;30;20184;-86
2021/05/23 11:49:21;;;;;;;6.63;0.85;;;19.40;55.30;;;;;;4720638;30;20267;-87
2021/05/23 11:51:47;;;;;;;1.40;0.88;;;19.30;53.00;;;;;;4735901;30;20195;-86
2021/05/23 11:54:13;;;;;;;3.25;0.80;;;19.30;53.80;;;;;;4719652;30;20191;-86
2021/05/23 11:56:40;;;;;;;1.45;0.70;;;19.10;53.60;;;;;;4719938;30;20183;-86
2021/05/23 11:59:08;;;;;;;2.22;0.73;;;19.00;54.90;;;;;;4705107;30;20188;-83
2021/05/23 12:01:54;;;;;;;1.85;0.70;;;19.00;54.70;;;;;;4704873;30;20214;-86
2021/05/23 12:04:20;;;;;;;4.05;0.90;;;19.10;55.30;;;;;;4719809;30;20189;-85
2021/05/23 12:06:51;;;;;;;1.73;0.75;;;19.10;54.80;;;;;;4719661;30;20660;-85
2021/05/23 12:09:35;;;;;;;1.80;0.70;;;19.20;57.30;;;;;;4720240;30;20219;-85
2021/05/23 12:12:03;;;;;;;1.38;0.80;;;19.40;56.40;;;;;;4736296;30;20188;-84
2021/05/23 12:14:33;;;;;;;2.20;0.80;;;19.60;54.40;;;;;;4735522;30;20180;-85
2021/05/23 12:17:04;;;;;;;1.05;0.82;;;19.80;55.30;;;;;;4733299;30;20202;-85
2021/05/23 12:19:53;;;;;;;1.05;0.68;;;20.00;53.30;;;;;;4735586;30;20226;-84
2021/05/23 12:22:31;;;;;;;3.67;0.73;;;20.00;53.80;;;;;;4731535;30;20198;-85
2021/05/23 12:24:59;;;;;;;4.28;0.50;;;20.00;52.50;;;;;;4719069;30;20191;-85
2021/05/23 12:27:35;;;;;;;3.97;1.30;;;19.90;52.90;;;;;;4718480;30;20638;-86
2021/05/23 12:30:17;;;;;;;0.57;0.50;;;19.90;54.40;;;;;;4732678;30;20226;-84
2021/05/23 12:32:48;;;;;;;0.93;0.63;;;19.80;52.90;;;;;;4732776;30;20302;-84
2021/05/23 12:35:24;;;;;;;3.00;0.63;;;19.70;53.50;;;;;;4733659;30;20219;-84
2021/05/23 12:37:54;;;;;;;3.60;0.80;;;19.40;54.50;;;;;;4730712;30;20190;-85
2021/05/23 12:40:29;;;;;;;3.22;1.00;;;19.40;54.10;;;;;;4698920;30;20191;-86
2021/05/23 12:43:22;;;;;;;1.00;0.47;;;19.40;53.60;;;;;;4704397;30;20600;-85
2021/05/23 12:45:57;;;;;;;0.93;0.80;;;19.30;53.70;;;;;;4717797;30;20677;-86
2021/05/23 12:48:32;;;;;;;1.02;0.65;;;19.30;54.90;;;;;;4728125;30;20242;-87
2021/05/23 12:50:59;;;;;;;1.42;0.80;;;19.20;54.60;;;;;;4733201;30;20245;-86
2021/05/23 12:53:26;;;;;;;3.58;0.75;;;19.20;55.80;;;;;;4733656;30;20194;-85
2021/05/23 12:55:55;;;;;;;3.67;0.70;;;19.30;54.50;;;;;;4719032;30;20650;-86
2021/05/23 12:58:22;;;;;;;2.97;0.82;;;19.20;55.30;;;;;;4700507;30;20560;-86